Aviation Digital Data Service (ADDS)

Output produced by METARs form (0033 UTC 17 July 2019)
found at http://www.aviationweather.gov/metar/data/
 
FABL 170000Z AUTO 00000KT 9999 ///////// 02/M05 Q1028
TAF FABL 162200Z 1700/1724 VRB03KT CAVOK TX22/1712Z TN00/1705Z
       
FACT 170000Z 04010KT 9999 FEW012 11/10 Q1019 NOSIG
TAF FACT 162200Z 1700/1806 34008KT 9999 SCT015 TX16/1712Z TN10/1706Z 
     PROB40 
     TEMPO 1700/1708 2500 BR BKN002 
     FM170800 35018KT 9999 BKN025 
     FM171800 35018KT 9999 SCT008 BKN030 
     PROB40 
     TEMPO 1803/1806 4000 -RA BKN004
       
FAGG 170000Z AUTO 34003KT CAVOK 08/03 Q1017
TAF FAGG 162200Z 1700/1724 30005KT CAVOK TX22/1712Z TN08/1706Z 
     PROB30 
     TEMPO 1700/1704 1500 MIFG 
     FM171000 10005KT CAVOK 
     FM171600 35005KT CAVOK
       
FAKM 170000Z AUTO 35007KT //// // ////// 09/M03 Q1026
FALW 170000Z AUTO 01008KT //// // ////// 12/12 Q1019
FALA 162300Z AUTO 20006KT //// // ////// 07/M05 Q1031
TAF FALA 162200Z 1700/1724 VRB03KT CAVOK TX21/1713Z TN03/1705Z 
     BECMG 1707/1709 32008KT 
     BECMG 1715/1717 VRB03KT
       
FAMM 170000Z AUTO 04005KT //// // ////// 07/M01 Q1028
FAOB 170000Z AUTO 06004KT //// // ////// 09/08 Q1016
TAF FAPM 161800Z 1619/1706 VRB02KT CAVOK TX14/1619Z TN06/1704Z 
     PROB30 
     TEMPO 1700/1706 2000 BR NSC
       
FAPN 162300Z AUTO 00000KT //// // ////// 04/M01 Q1028
FAPE 170017Z 30004KT CAVOK 10/07 Q1017 NOSIG
TAF FAPE 162200Z 1700/1724 31005KT CAVOK TX22/1712Z TN07/1704Z 
     PROB30 
     TEMPO 1706/1709 31008G20KT 
     BECMG 1709/1711 23010KT 
     BECMG 1718/1720 01008KT
       
FAUT 170000Z AUTO 07002KT //// // ////// 09/03 Q1023
FAUP 170000Z 01010KT CAVOK 16/M02 Q1023 NOSIG
TAF FAUP 162200Z 1700/1724 34010KT CAVOK TX26/1712Z TN08/1704Z
       
FAVV 170000Z AUTO 35004KT //// // ////// 03/M04 Q1029
FAWK 162300Z AUTO 06005KT //// // ////// ///// Q1030